Cape Peony — 3FDX6 — position and weather

sailwx.info

Track history (hours):
 
Tides and Currents Weather Stations Pressure Air Temp Water Temp Dewpoint Dewpoint Depression Visibility Wind Speed Wind Dir Waves Ship Positions

Cape Peony

Last reported at 2016-Mar-27 17:28 UTC. Time now 2016-May-02 23:11 UTC.
Position N 30°19' W 015°20'.
Warning: this ship's position is 36 days out of date.

Length 292 m; draft 18 m.

Type: Cargo ship. MMSI: 373590000.

Date/timePositionNaut miles runAvg speedWind from/ knotsBaromVisibWave heightAir tempDewpointWater temp
2016-Mar-27 17:28N 30°19' W 015°20'6410.8
2016-Mar-27 11:33N 29°19' W 015°45'1110.6
2016-Mar-27 10:29N 29°08' W 015°49'1010.7
2016-Mar-27 09:33N 28°59' W 015°53'1110.7
2016-Mar-27 08:33N 28°49' W 015°57'1110.4
2016-Mar-27 07:33N 28°39' W 016°01'1010.3
2016-Mar-27 06:33N 28°29' W 016°05'6 6.3
2016-Mar-27 05:31N 28°29' W 016°12'0 0.0
2016-Mar-27 04:31N 28°29' W 016°13'0 0.0
2016-Mar-27 03:31N 28°29' W 016°13'0 0.0
2016-Mar-27 02:22N 28°29' W 016°13'0 0.0
2016-Mar-27 01:22N 28°29' W 016°13'0 0.0
2016-Mar-27 00:22N 28°29' W 016°13'0 0.0
2016-Mar-26 23:25N 28°29' W 016°12'0 0.0
2016-Mar-26 22:10N 28°29' W 016°13'0 0.0
2016-Mar-26 21:13N 28°29' W 016°13'0 0.0
2016-Mar-26 20:28N 28°29' W 016°13'0 0.1
2016-Mar-26 19:28N 28°29' W 016°12'0 0.0
2016-Mar-26 18:31N 28°29' W 016°12'0 0.1
2016-Mar-26 17:33N 28°29' W 016°12'3 2.8
2016-Mar-26 16:33N 28°27' W 016°11'5 4.8
2016-Mar-26 15:33N 28°24' W 016°06'1010.0
2016-Mar-26 14:34N 28°18' W 015°57'3510.8
2016-Mar-26 11:21N 27°48' W 016°17'  
2016-Mar-23 20:08N 16°54' W 017°60'610.7
2016-Mar-23 19:33N 16°48' W 017°60'14611.0
2016-Mar-23 06:16N 14°22' W 018°00'810.6
2016-Mar-23 05:33N 14°14' W 018°00'1110.6
2016-Mar-23 04:34N 14°04' W 017°60'1010.4
2016-Mar-23 03:34N 13°53' W 017°60'1010.3
2016-Mar-23 02:34N 13°43' W 017°60'1010.4
2016-Mar-23 01:34N 13°32' W 018°00'1110.6
2016-Mar-23 00:30N 13°21' W 018°00'21810.3
2016-Mar-22 03:26N 09°50' W 017°06'2311.1
2016-Mar-22 01:21N 09°32' W 016°52'2111.1
2016-Mar-21 23:27N 09°15' W 016°39'1411.0
2016-Mar-21 22:13N 09°04' W 016°31'711.0
2016-Mar-21 21:33N 08°58' W 016°26'2811.5
2016-Mar-21 19:08N 08°36' W 016°09'711.5
2016-Mar-21 18:33N 08°31' W 016°05'  
Track history (hours):
 
Tides and Currents Weather Stations Pressure Air Temp Water Temp Dewpoint Dewpoint Depression Visibility Wind Speed Wind Dir Waves Ship Positions

Cape Peony

Last reported at 2016-Mar-27 17:28 UTC. Time now 2016-May-02 23:11 UTC.
Position N 30°19' W 015°20'.
Warning: this ship's position is 36 days out of date.

Length 292 m; draft 18 m.

Type: Cargo ship. MMSI: 373590000.

Date/timePositionNaut miles runAvg speedWind from/ knotsBaromVisibWave heightAir tempDewpointWater temp
2016-Mar-27 17:28N 30°19' W 015°20'6410.8
2016-Mar-27 11:33N 29°19' W 015°45'1110.6
2016-Mar-27 10:29N 29°08' W 015°49'1010.7
2016-Mar-27 09:33N 28°59' W 015°53'1110.7
2016-Mar-27 08:33N 28°49' W 015°57'1110.4
2016-Mar-27 07:33N 28°39' W 016°01'1010.3
2016-Mar-27 06:33N 28°29' W 016°05'6 6.3
2016-Mar-27 05:31N 28°29' W 016°12'0 0.0
2016-Mar-27 04:31N 28°29' W 016°13'0 0.0
2016-Mar-27 03:31N 28°29' W 016°13'0 0.0
2016-Mar-27 02:22N 28°29' W 016°13'0 0.0
2016-Mar-27 01:22N 28°29' W 016°13'0 0.0
2016-Mar-27 00:22N 28°29' W 016°13'0 0.0
2016-Mar-26 23:25N 28°29' W 016°12'0 0.0
2016-Mar-26 22:10N 28°29' W 016°13'0 0.0
2016-Mar-26 21:13N 28°29' W 016°13'0 0.0
2016-Mar-26 20:28N 28°29' W 016°13'0 0.1
2016-Mar-26 19:28N 28°29' W 016°12'0 0.0
2016-Mar-26 18:31N 28°29' W 016°12'0 0.1
2016-Mar-26 17:33N 28°29' W 016°12'3 2.8
2016-Mar-26 16:33N 28°27' W 016°11'5 4.8
2016-Mar-26 15:33N 28°24' W 016°06'1010.0
2016-Mar-26 14:34N 28°18' W 015°57'3510.8
2016-Mar-26 11:21N 27°48' W 016°17'  
2016-Mar-23 20:08N 16°54' W 017°60'610.7
2016-Mar-23 19:33N 16°48' W 017°60'14611.0
2016-Mar-23 06:16N 14°22' W 018°00'810.6
2016-Mar-23 05:33N 14°14' W 018°00'1110.6
2016-Mar-23 04:34N 14°04' W 017°60'1010.4
2016-Mar-23 03:34N 13°53' W 017°60'1010.3
2016-Mar-23 02:34N 13°43' W 017°60'1010.4
2016-Mar-23 01:34N 13°32' W 018°00'1110.6
2016-Mar-23 00:30N 13°21' W 018°00'21810.3
2016-Mar-22 03:26N 09°50' W 017°06'2311.1
2016-Mar-22 01:21N 09°32' W 016°52'2111.1
2016-Mar-21 23:27N 09°15' W 016°39'1411.0
2016-Mar-21 22:13N 09°04' W 016°31'711.0
2016-Mar-21 21:33N 08°58' W 016°26'2811.5
2016-Mar-21 19:08N 08°36' W 016°09'711.5
2016-Mar-21 18:33N 08°31' W 016°05'  

Dump ship's entire track history